sensor_id;sensor_type;location;lat;lon;timestamp;P1;durP1;ratioP1;P2;durP2;ratioP2
55340;SDS011;58855;44.984;20.158;2022-08-19T00:00:25;14.70;;;9.50;;
55340;SDS011;58855;44.984;20.158;2022-08-19T00:02:52;16.15;;;9.18;;
55340;SDS011;58855;44.984;20.158;2022-08-19T00:05:19;16.77;;;9.20;;
55340;SDS011;58855;44.984;20.158;2022-08-19T00:07:46;16.58;;;8.68;;
55340;SDS011;58855;44.984;20.158;2022-08-19T00:10:13;15.27;;;8.50;;
55340;SDS011;58855;44.984;20.158;2022-08-19T00:12:40;17.38;;;10.00;;
55340;SDS011;58855;44.984;20.158;2022-08-19T00:15:07;16.00;;;8.85;;
55340;SDS011;58855;44.984;20.158;2022-08-19T00:17:37;17.75;;;8.75;;
55340;SDS011;58855;44.984;20.158;2022-08-19T00:20:03;16.25;;;9.25;;
55340;SDS011;58855;44.984;20.158;2022-08-19T00:22:30;15.95;;;9.60;;
55340;SDS011;58855;44.984;20.158;2022-08-19T00:24:56;18.80;;;9.15;;
55340;SDS011;58855;44.984;20.158;2022-08-19T00:27:22;16.65;;;10.13;;
55340;SDS011;58855;44.984;20.158;2022-08-19T00:29:48;16.92;;;9.73;;
55340;SDS011;58855;44.984;20.158;2022-08-19T00:32:16;16.25;;;9.18;;
55340;SDS011;58855;44.984;20.158;2022-08-19T00:34:42;15.43;;;9.80;;
55340;SDS011;58855;44.984;20.158;2022-08-19T00:37:08;17.13;;;9.55;;
55340;SDS011;58855;44.984;20.158;2022-08-19T00:39:35;17.27;;;9.55;;
55340;SDS011;58855;44.984;20.158;2022-08-19T00:42:01;18.67;;;9.10;;
55340;SDS011;58855;44.984;20.158;2022-08-19T00:44:28;15.32;;;9.23;;
55340;SDS011;58855;44.984;20.158;2022-08-19T00:46:57;18.50;;;9.27;;
55340;SDS011;58855;44.984;20.158;2022-08-19T00:52:00;21.27;;;8.30;;
55340;SDS011;58855;44.984;20.158;2022-08-19T00:54:28;12.52;;;8.75;;
55340;SDS011;58855;44.984;20.158;2022-08-19T00:56:56;15.98;;;9.80;;
55340;SDS011;58855;44.984;20.158;2022-08-19T00:59:25;15.95;;;8.93;;
55340;SDS011;58855;44.984;20.158;2022-08-19T01:01:53;18.63;;;9.38;;
55340;SDS011;58855;44.984;20.158;2022-08-19T01:04:22;19.38;;;10.55;;
55340;SDS011;58855;44.984;20.158;2022-08-19T01:06:48;16.20;;;11.10;;
55340;SDS011;58855;44.984;20.158;2022-08-19T01:09:14;16.15;;;9.82;;
55340;SDS011;58855;44.984;20.158;2022-08-19T01:11:41;20.83;;;10.32;;
55340;SDS011;58855;44.984;20.158;2022-08-19T01:14:09;20.35;;;10.35;;
55340;SDS011;58855;44.984;20.158;2022-08-19T01:16:36;23.00;;;9.80;;
55340;SDS011;58855;44.984;20.158;2022-08-19T01:19:03;17.52;;;9.52;;
55340;SDS011;58855;44.984;20.158;2022-08-19T01:21:42;15.43;;;9.35;;
55340;SDS011;58855;44.984;20.158;2022-08-19T01:24:09;24.05;;;10.27;;
55340;SDS011;58855;44.984;20.158;2022-08-19T01:26:39;15.02;;;9.23;;
55340;SDS011;58855;44.984;20.158;2022-08-19T01:29:06;22.90;;;10.45;;
55340;SDS011;58855;44.984;20.158;2022-08-19T01:31:36;17.40;;;9.63;;
55340;SDS011;58855;44.984;20.158;2022-08-19T01:34:05;18.70;;;11.25;;
55340;SDS011;58855;44.984;20.158;2022-08-19T01:36:41;12.60;;;8.65;;
55340;SDS011;58855;44.984;20.158;2022-08-19T01:39:16;16.08;;;9.52;;
55340;SDS011;58855;44.984;20.158;2022-08-19T01:41:43;15.13;;;9.23;;
55340;SDS011;58855;44.984;20.158;2022-08-19T01:44:09;23.15;;;11.43;;
55340;SDS011;58855;44.984;20.158;2022-08-19T01:46:39;15.77;;;9.82;;
55340;SDS011;58855;44.984;20.158;2022-08-19T01:49:06;16.02;;;10.45;;
55340;SDS011;58855;44.984;20.158;2022-08-19T01:51:35;19.27;;;11.00;;
55340;SDS011;58855;44.984;20.158;2022-08-19T01:54:01;18.60;;;11.07;;
55340;SDS011;58855;44.984;20.158;2022-08-19T01:56:28;18.80;;;9.70;;
55340;SDS011;58855;44.984;20.158;2022-08-19T01:58:58;16.85;;;10.73;;
55340;SDS011;58855;44.984;20.158;2022-08-19T02:01:26;17.65;;;12.10;;
55340;SDS011;58855;44.984;20.158;2022-08-19T02:03:52;25.58;;;13.30;;
55340;SDS011;58855;44.984;20.158;2022-08-19T02:06:20;23.17;;;13.57;;
55340;SDS011;58855;44.984;20.158;2022-08-19T02:08:46;21.70;;;12.65;;
55340;SDS011;58855;44.984;20.158;2022-08-19T02:14:08;19.35;;;11.73;;
55340;SDS011;58855;44.984;20.158;2022-08-19T02:16:35;20.67;;;11.82;;
55340;SDS011;58855;44.984;20.158;2022-08-19T02:19:01;18.58;;;12.15;;
55340;SDS011;58855;44.984;20.158;2022-08-19T02:21:30;20.30;;;12.40;;
55340;SDS011;58855;44.984;20.158;2022-08-19T02:23:57;20.63;;;12.52;;
55340;SDS011;58855;44.984;20.158;2022-08-19T02:26:24;24.80;;;13.82;;
55340;SDS011;58855;44.984;20.158;2022-08-19T02:28:51;17.23;;;12.73;;
55340;SDS011;58855;44.984;20.158;2022-08-19T02:31:19;24.65;;;12.95;;
55340;SDS011;58855;44.984;20.158;2022-08-19T02:33:46;20.60;;;12.88;;
55340;SDS011;58855;44.984;20.158;2022-08-19T02:36:13;16.27;;;13.15;;
55340;SDS011;58855;44.984;20.158;2022-08-19T02:38:40;17.75;;;13.02;;
55340;SDS011;58855;44.984;20.158;2022-08-19T02:41:17;20.08;;;12.88;;
55340;SDS011;58855;44.984;20.158;2022-08-19T02:43:43;19.05;;;13.25;;
55340;SDS011;58855;44.984;20.158;2022-08-19T02:48:38;16.70;;;13.15;;
55340;SDS011;58855;44.984;20.158;2022-08-19T02:51:04;18.60;;;12.77;;
55340;SDS011;58855;44.984;20.158;2022-08-19T02:53:31;23.00;;;13.38;;
55340;SDS011;58855;44.984;20.158;2022-08-19T02:55:57;22.15;;;14.13;;
55340;SDS011;58855;44.984;20.158;2022-08-19T02:58:23;20.15;;;14.60;;
55340;SDS011;58855;44.984;20.158;2022-08-19T03:00:52;21.63;;;15.23;;
55340;SDS011;58855;44.984;20.158;2022-08-19T03:03:19;26.70;;;15.05;;
55340;SDS011;58855;44.984;20.158;2022-08-19T03:05:45;22.30;;;15.75;;
55340;SDS011;58855;44.984;20.158;2022-08-19T03:08:12;22.67;;;14.73;;
55340;SDS011;58855;44.984;20.158;2022-08-19T03:10:42;24.02;;;15.05;;
55340;SDS011;58855;44.984;20.158;2022-08-19T03:13:09;25.50;;;14.95;;
55340;SDS011;58855;44.984;20.158;2022-08-19T03:15:38;22.67;;;14.65;;
55340;SDS011;58855;44.984;20.158;2022-08-19T03:18:05;25.40;;;15.23;;
55340;SDS011;58855;44.984;20.158;2022-08-19T03:20:31;20.85;;;14.82;;
55340;SDS011;58855;44.984;20.158;2022-08-19T03:22:57;21.92;;;15.00;;
55340;SDS011;58855;44.984;20.158;2022-08-19T03:25:23;27.33;;;16.08;;
55340;SDS011;58855;44.984;20.158;2022-08-19T03:27:52;21.35;;;15.07;;
55340;SDS011;58855;44.984;20.158;2022-08-19T03:30:18;27.60;;;15.25;;
55340;SDS011;58855;44.984;20.158;2022-08-19T03:32:45;27.45;;;15.52;;
55340;SDS011;58855;44.984;20.158;2022-08-19T03:35:11;20.58;;;15.50;;
55340;SDS011;58855;44.984;20.158;2022-08-19T03:37:37;24.33;;;15.75;;
55340;SDS011;58855;44.984;20.158;2022-08-19T03:40:03;21.95;;;16.58;;
55340;SDS011;58855;44.984;20.158;2022-08-19T03:42:29;27.23;;;15.93;;
55340;SDS011;58855;44.984;20.158;2022-08-19T03:44:55;22.60;;;16.85;;
55340;SDS011;58855;44.984;20.158;2022-08-19T03:47:23;22.27;;;16.70;;
55340;SDS011;58855;44.984;20.158;2022-08-19T03:49:49;23.42;;;17.42;;
55340;SDS011;58855;44.984;20.158;2022-08-19T03:52:15;23.77;;;16.73;;
55340;SDS011;58855;44.984;20.158;2022-08-19T03:54:41;24.95;;;17.85;;
55340;SDS011;58855;44.984;20.158;2022-08-19T03:57:08;26.05;;;18.92;;
55340;SDS011;58855;44.984;20.158;2022-08-19T03:59:34;22.35;;;18.25;;
55340;SDS011;58855;44.984;20.158;2022-08-19T04:02:02;22.85;;;17.95;;
55340;SDS011;58855;44.984;20.158;2022-08-19T04:04:28;29.90;;;19.33;;
55340;SDS011;58855;44.984;20.158;2022-08-19T04:06:55;24.75;;;17.42;;
55340;SDS011;58855;44.984;20.158;2022-08-19T04:09:21;26.17;;;18.52;;
55340;SDS011;58855;44.984;20.158;2022-08-19T04:11:49;22.50;;;16.73;;
55340;SDS011;58855;44.984;20.158;2022-08-19T04:14:19;23.17;;;17.55;;
55340;SDS011;58855;44.984;20.158;2022-08-19T04:16:46;21.70;;;16.63;;
55340;SDS011;58855;44.984;20.158;2022-08-19T04:19:12;20.08;;;16.98;;
55340;SDS011;58855;44.984;20.158;2022-08-19T04:21:39;26.88;;;17.90;;
55340;SDS011;58855;44.984;20.158;2022-08-19T04:24:05;25.95;;;17.23;;
55340;SDS011;58855;44.984;20.158;2022-08-19T04:26:32;25.95;;;16.92;;
55340;SDS011;58855;44.984;20.158;2022-08-19T04:28:59;32.85;;;17.17;;
55340;SDS011;58855;44.984;20.158;2022-08-19T04:31:27;23.83;;;16.50;;
55340;SDS011;58855;44.984;20.158;2022-08-19T04:33:57;24.95;;;16.40;;
55340;SDS011;58855;44.984;20.158;2022-08-19T04:36:25;27.75;;;17.50;;
55340;SDS011;58855;44.984;20.158;2022-08-19T04:39:03;23.75;;;16.38;;
55340;SDS011;58855;44.984;20.158;2022-08-19T04:41:29;27.70;;;15.48;;
55340;SDS011;58855;44.984;20.158;2022-08-19T04:44:14;25.60;;;16.38;;
55340;SDS011;58855;44.984;20.158;2022-08-19T04:46:43;33.75;;;16.63;;
55340;SDS011;58855;44.984;20.158;2022-08-19T04:49:09;30.30;;;16.80;;
55340;SDS011;58855;44.984;20.158;2022-08-19T04:51:36;31.25;;;16.92;;
55340;SDS011;58855;44.984;20.158;2022-08-19T04:54:03;26.38;;;16.42;;
55340;SDS011;58855;44.984;20.158;2022-08-19T04:56:29;26.63;;;15.35;;
55340;SDS011;58855;44.984;20.158;2022-08-19T04:58:55;25.52;;;15.48;;
55340;SDS011;58855;44.984;20.158;2022-08-19T05:01:26;23.67;;;14.98;;
55340;SDS011;58855;44.984;20.158;2022-08-19T05:03:53;24.05;;;15.05;;
55340;SDS011;58855;44.984;20.158;2022-08-19T05:06:20;21.38;;;14.27;;
55340;SDS011;58855;44.984;20.158;2022-08-19T05:08:46;25.17;;;14.27;;
55340;SDS011;58855;44.984;20.158;2022-08-19T05:11:14;22.90;;;14.68;;
55340;SDS011;58855;44.984;20.158;2022-08-19T05:13:41;25.92;;;15.45;;
55340;SDS011;58855;44.984;20.158;2022-08-19T05:16:08;23.73;;;14.25;;
55340;SDS011;58855;44.984;20.158;2022-08-19T05:18:35;22.75;;;13.95;;
55340;SDS011;58855;44.984;20.158;2022-08-19T05:21:20;17.48;;;12.88;;
55340;SDS011;58855;44.984;20.158;2022-08-19T05:24:05;24.52;;;13.70;;
55340;SDS011;58855;44.984;20.158;2022-08-19T05:26:34;22.90;;;12.98;;
55340;SDS011;58855;44.984;20.158;2022-08-19T05:29:00;23.15;;;12.57;;
55340;SDS011;58855;44.984;20.158;2022-08-19T05:31:26;26.45;;;13.15;;
55340;SDS011;58855;44.984;20.158;2022-08-19T05:33:52;25.05;;;11.95;;
55340;SDS011;58855;44.984;20.158;2022-08-19T05:36:18;19.90;;;10.43;;
55340;SDS011;58855;44.984;20.158;2022-08-19T05:38:45;18.58;;;12.07;;
55340;SDS011;58855;44.984;20.158;2022-08-19T05:41:13;18.88;;;10.75;;
55340;SDS011;58855;44.984;20.158;2022-08-19T05:43:40;28.48;;;10.73;;
55340;SDS011;58855;44.984;20.158;2022-08-19T05:46:06;13.38;;;9.85;;
55340;SDS011;58855;44.984;20.158;2022-08-19T05:48:34;15.43;;;9.77;;
55340;SDS011;58855;44.984;20.158;2022-08-19T05:51:04;18.02;;;10.05;;
55340;SDS011;58855;44.984;20.158;2022-08-19T05:53:33;14.68;;;9.63;;
55340;SDS011;58855;44.984;20.158;2022-08-19T05:56:06;22.83;;;9.38;;
55340;SDS011;58855;44.984;20.158;2022-08-19T05:58:34;17.75;;;8.82;;
55340;SDS011;58855;44.984;20.158;2022-08-19T06:01:00;11.27;;;8.88;;
55340;SDS011;58855;44.984;20.158;2022-08-19T06:03:34;16.08;;;8.93;;
55340;SDS011;58855;44.984;20.158;2022-08-19T06:06:02;21.80;;;10.05;;
55340;SDS011;58855;44.984;20.158;2022-08-19T06:08:28;13.02;;;8.35;;
55340;SDS011;58855;44.984;20.158;2022-08-19T06:10:54;16.08;;;9.05;;
55340;SDS011;58855;44.984;20.158;2022-08-19T06:13:21;14.95;;;8.50;;
55340;SDS011;58855;44.984;20.158;2022-08-19T06:15:48;24.98;;;9.45;;
55340;SDS011;58855;44.984;20.158;2022-08-19T06:18:14;12.55;;;8.55;;
55340;SDS011;58855;44.984;20.158;2022-08-19T06:20:41;10.75;;;7.72;;
55340;SDS011;58855;44.984;20.158;2022-08-19T06:23:08;20.13;;;7.90;;
55340;SDS011;58855;44.984;20.158;2022-08-19T06:25:34;17.70;;;7.93;;
55340;SDS011;58855;44.984;20.158;2022-08-19T06:28:00;16.52;;;8.02;;
55340;SDS011;58855;44.984;20.158;2022-08-19T06:30:27;12.23;;;7.72;;
55340;SDS011;58855;44.984;20.158;2022-08-19T06:32:53;17.17;;;7.72;;
55340;SDS011;58855;44.984;20.158;2022-08-19T06:35:19;14.20;;;8.20;;
55340;SDS011;58855;44.984;20.158;2022-08-19T06:37:45;20.67;;;7.63;;
55340;SDS011;58855;44.984;20.158;2022-08-19T06:40:11;19.27;;;8.02;;
55340;SDS011;58855;44.984;20.158;2022-08-19T06:42:38;13.80;;;7.15;;
55340;SDS011;58855;44.984;20.158;2022-08-19T06:45:05;15.68;;;7.88;;
55340;SDS011;58855;44.984;20.158;2022-08-19T06:47:33;15.20;;;7.15;;
55340;SDS011;58855;44.984;20.158;2022-08-19T06:49:59;16.23;;;7.03;;
55340;SDS011;58855;44.984;20.158;2022-08-19T06:52:29;11.60;;;6.80;;
55340;SDS011;58855;44.984;20.158;2022-08-19T06:54:55;15.18;;;6.88;;
55340;SDS011;58855;44.984;20.158;2022-08-19T06:57:23;11.73;;;6.43;;
55340;SDS011;58855;44.984;20.158;2022-08-19T06:59:49;14.15;;;7.10;;
55340;SDS011;58855;44.984;20.158;2022-08-19T07:02:15;13.20;;;6.78;;
55340;SDS011;58855;44.984;20.158;2022-08-19T07:04:41;15.80;;;7.53;;
55340;SDS011;58855;44.984;20.158;2022-08-19T07:07:09;11.77;;;6.65;;
55340;SDS011;58855;44.984;20.158;2022-08-19T07:09:37;11.57;;;7.30;;
55340;SDS011;58855;44.984;20.158;2022-08-19T07:12:04;13.15;;;7.20;;
55340;SDS011;58855;44.984;20.158;2022-08-19T07:14:31;31.77;;;9.25;;
55340;SDS011;58855;44.984;20.158;2022-08-19T07:17:00;9.85;;;6.70;;
55340;SDS011;58855;44.984;20.158;2022-08-19T07:19:26;12.75;;;7.57;;
55340;SDS011;58855;44.984;20.158;2022-08-19T07:21:52;13.73;;;6.32;;
55340;SDS011;58855;44.984;20.158;2022-08-19T07:24:23;12.45;;;6.68;;
55340;SDS011;58855;44.984;20.158;2022-08-19T07:26:50;11.18;;;6.20;;
55340;SDS011;58855;44.984;20.158;2022-08-19T07:29:16;12.63;;;5.97;;
55340;SDS011;58855;44.984;20.158;2022-08-19T07:31:42;11.40;;;5.43;;
55340;SDS011;58855;44.984;20.158;2022-08-19T07:34:09;13.77;;;5.20;;
55340;SDS011;58855;44.984;20.158;2022-08-19T07:36:37;19.30;;;6.57;;
55340;SDS011;58855;44.984;20.158;2022-08-19T07:39:07;14.82;;;5.90;;
55340;SDS011;58855;44.984;20.158;2022-08-19T07:41:34;14.18;;;5.95;;
55340;SDS011;58855;44.984;20.158;2022-08-19T07:44:02;15.45;;;6.05;;
55340;SDS011;58855;44.984;20.158;2022-08-19T07:46:31;13.85;;;5.93;;
55340;SDS011;58855;44.984;20.158;2022-08-19T07:48:58;14.85;;;6.72;;
55340;SDS011;58855;44.984;20.158;2022-08-19T07:51:25;11.73;;;5.68;;
55340;SDS011;58855;44.984;20.158;2022-08-19T07:53:52;26.95;;;6.78;;
55340;SDS011;58855;44.984;20.158;2022-08-19T07:56:19;12.18;;;6.13;;
55340;SDS011;58855;44.984;20.158;2022-08-19T07:58:46;19.33;;;5.85;;
55340;SDS011;58855;44.984;20.158;2022-08-19T08:01:15;12.30;;;7.18;;
55340;SDS011;58855;44.984;20.158;2022-08-19T08:03:41;14.02;;;6.53;;
55340;SDS011;58855;44.984;20.158;2022-08-19T08:06:27;17.95;;;5.93;;
55340;SDS011;58855;44.984;20.158;2022-08-19T08:09:13;13.18;;;6.13;;
55340;SDS011;58855;44.984;20.158;2022-08-19T08:14:20;16.35;;;6.50;;
55340;SDS011;58855;44.984;20.158;2022-08-19T08:16:47;14.60;;;6.25;;
55340;SDS011;58855;44.984;20.158;2022-08-19T08:19:15;11.05;;;6.32;;
55340;SDS011;58855;44.984;20.158;2022-08-19T08:21:41;14.75;;;6.97;;
55340;SDS011;58855;44.984;20.158;2022-08-19T08:24:08;18.45;;;6.07;;
55340;SDS011;58855;44.984;20.158;2022-08-19T08:26:34;13.57;;;5.10;;
55340;SDS011;58855;44.984;20.158;2022-08-19T08:29:00;14.18;;;6.00;;
55340;SDS011;58855;44.984;20.158;2022-08-19T08:31:26;11.63;;;5.47;;
55340;SDS011;58855;44.984;20.158;2022-08-19T08:33:54;12.00;;;5.18;;
55340;SDS011;58855;44.984;20.158;2022-08-19T08:36:21;13.68;;;6.35;;
55340;SDS011;58855;44.984;20.158;2022-08-19T08:38:47;13.70;;;6.78;;
55340;SDS011;58855;44.984;20.158;2022-08-19T08:41:28;16.95;;;7.20;;
55340;SDS011;58855;44.984;20.158;2022-08-19T08:43:57;12.40;;;6.10;;
55340;SDS011;58855;44.984;20.158;2022-08-19T08:53:59;9.93;;;5.50;;
55340;SDS011;58855;44.984;20.158;2022-08-19T08:56:27;16.05;;;5.18;;
55340;SDS011;58855;44.984;20.158;2022-08-19T08:58:58;14.65;;;5.72;;
55340;SDS011;58855;44.984;20.158;2022-08-19T09:01:25;12.50;;;5.33;;
55340;SDS011;58855;44.984;20.158;2022-08-19T09:03:51;15.77;;;5.10;;
55340;SDS011;58855;44.984;20.158;2022-08-19T09:06:29;15.30;;;5.82;;
55340;SDS011;58855;44.984;20.158;2022-08-19T09:09:14;12.27;;;5.80;;
55340;SDS011;58855;44.984;20.158;2022-08-19T09:14:15;12.27;;;5.18;;
55340;SDS011;58855;44.984;20.158;2022-08-19T09:16:45;14.85;;;4.93;;
55340;SDS011;58855;44.984;20.158;2022-08-19T09:19:13;9.18;;;5.68;;
55340;SDS011;58855;44.984;20.158;2022-08-19T09:21:40;9.27;;;5.40;;
55340;SDS011;58855;44.984;20.158;2022-08-19T09:24:06;10.68;;;5.35;;
55340;SDS011;58855;44.984;20.158;2022-08-19T09:26:33;13.45;;;5.55;;
55340;SDS011;58855;44.984;20.158;2022-08-19T09:28:59;10.90;;;5.60;;
55340;SDS011;58855;44.984;20.158;2022-08-19T09:31:28;10.70;;;5.05;;
55340;SDS011;58855;44.984;20.158;2022-08-19T09:33:54;15.85;;;5.80;;
55340;SDS011;58855;44.984;20.158;2022-08-19T09:36:25;14.50;;;6.25;;
55340;SDS011;58855;44.984;20.158;2022-08-19T09:38:52;9.40;;;5.53;;
55340;SDS011;58855;44.984;20.158;2022-08-19T09:41:19;11.68;;;5.45;;
55340;SDS011;58855;44.984;20.158;2022-08-19T09:43:47;15.55;;;6.55;;
55340;SDS011;58855;44.984;20.158;2022-08-19T09:46:14;15.95;;;6.28;;
55340;SDS011;58855;44.984;20.158;2022-08-19T09:48:43;23.10;;;4.70;;
55340;SDS011;58855;44.984;20.158;2022-08-19T09:51:14;15.38;;;5.88;;
55340;SDS011;58855;44.984;20.158;2022-08-19T09:53:40;11.52;;;4.93;;
55340;SDS011;58855;44.984;20.158;2022-08-19T09:56:07;13.02;;;4.82;;
55340;SDS011;58855;44.984;20.158;2022-08-19T09:58:33;16.13;;;5.25;;
55340;SDS011;58855;44.984;20.158;2022-08-19T10:01:00;18.17;;;4.88;;
55340;SDS011;58855;44.984;20.158;2022-08-19T10:03:27;8.43;;;4.32;;
55340;SDS011;58855;44.984;20.158;2022-08-19T10:05:54;8.32;;;4.65;;
55340;SDS011;58855;44.984;20.158;2022-08-19T10:08:21;12.43;;;4.72;;
55340;SDS011;58855;44.984;20.158;2022-08-19T10:10:48;9.55;;;4.20;;
55340;SDS011;58855;44.984;20.158;2022-08-19T10:13:16;14.98;;;4.50;;
55340;SDS011;58855;44.984;20.158;2022-08-19T10:15:42;13.93;;;4.15;;
55340;SDS011;58855;44.984;20.158;2022-08-19T10:18:09;8.15;;;4.47;;
55340;SDS011;58855;44.984;20.158;2022-08-19T10:20:36;7.95;;;4.15;;
55340;SDS011;58855;44.984;20.158;2022-08-19T10:23:02;8.60;;;4.03;;
55340;SDS011;58855;44.984;20.158;2022-08-19T10:25:28;13.35;;;4.70;;
55340;SDS011;58855;44.984;20.158;2022-08-19T10:27:54;13.85;;;4.15;;
55340;SDS011;58855;44.984;20.158;2022-08-19T10:30:21;9.07;;;4.13;;
55340;SDS011;58855;44.984;20.158;2022-08-19T10:32:47;13.35;;;4.05;;
55340;SDS011;58855;44.984;20.158;2022-08-19T10:35:13;12.95;;;4.13;;
55340;SDS011;58855;44.984;20.158;2022-08-19T10:37:39;13.20;;;4.40;;
55340;SDS011;58855;44.984;20.158;2022-08-19T10:40:07;10.25;;;3.85;;
55340;SDS011;58855;44.984;20.158;2022-08-19T10:42:36;12.73;;;4.40;;
55340;SDS011;58855;44.984;20.158;2022-08-19T10:45:04;11.48;;;4.00;;
55340;SDS011;58855;44.984;20.158;2022-08-19T10:47:31;10.73;;;4.28;;
55340;SDS011;58855;44.984;20.158;2022-08-19T10:49:57;9.05;;;4.00;;
55340;SDS011;58855;44.984;20.158;2022-08-19T10:52:43;9.80;;;4.28;;
55340;SDS011;58855;44.984;20.158;2022-08-19T10:55:10;10.00;;;3.60;;
55340;SDS011;58855;44.984;20.158;2022-08-19T10:57:54;10.57;;;4.82;;
55340;SDS011;58855;44.984;20.158;2022-08-19T11:00:22;14.88;;;3.90;;
55340;SDS011;58855;44.984;20.158;2022-08-19T11:02:48;8.00;;;3.53;;
55340;SDS011;58855;44.984;20.158;2022-08-19T11:05:15;7.60;;;4.13;;
55340;SDS011;58855;44.984;20.158;2022-08-19T11:07:42;11.82;;;4.28;;
55340;SDS011;58855;44.984;20.158;2022-08-19T11:10:10;9.65;;;3.75;;
55340;SDS011;58855;44.984;20.158;2022-08-19T11:12:37;14.30;;;4.43;;
55340;SDS011;58855;44.984;20.158;2022-08-19T11:15:05;12.23;;;3.65;;
55340;SDS011;58855;44.984;20.158;2022-08-19T11:17:32;8.80;;;3.42;;
55340;SDS011;58855;44.984;20.158;2022-08-19T11:19:58;11.45;;;3.58;;
55340;SDS011;58855;44.984;20.158;2022-08-19T11:22:28;14.93;;;4.10;;
55340;SDS011;58855;44.984;20.158;2022-08-19T11:24:54;12.00;;;4.95;;
55340;SDS011;58855;44.984;20.158;2022-08-19T11:27:20;9.38;;;4.18;;
55340;SDS011;58855;44.984;20.158;2022-08-19T11:29:47;10.80;;;3.70;;
55340;SDS011;58855;44.984;20.158;2022-08-19T11:32:13;9.30;;;3.97;;
55340;SDS011;58855;44.984;20.158;2022-08-19T11:34:40;14.02;;;4.55;;
55340;SDS011;58855;44.984;20.158;2022-08-19T11:37:07;11.63;;;3.33;;
55340;SDS011;58855;44.984;20.158;2022-08-19T11:39:34;13.10;;;4.10;;
55340;SDS011;58855;44.984;20.158;2022-08-19T11:42:02;11.40;;;4.28;;
55340;SDS011;58855;44.984;20.158;2022-08-19T11:44:48;9.70;;;3.42;;
55340;SDS011;58855;44.984;20.158;2022-08-19T11:47:15;12.15;;;3.60;;
55340;SDS011;58855;44.984;20.158;2022-08-19T11:49:41;14.15;;;3.75;;
55340;SDS011;58855;44.984;20.158;2022-08-19T11:52:07;16.63;;;3.95;;
55340;SDS011;58855;44.984;20.158;2022-08-19T11:54:34;15.15;;;4.05;;
55340;SDS011;58855;44.984;20.158;2022-08-19T11:57:02;8.38;;;3.53;;
55340;SDS011;58855;44.984;20.158;2022-08-19T11:59:28;13.32;;;4.47;;
55340;SDS011;58855;44.984;20.158;2022-08-19T12:01:54;13.30;;;3.70;;
55340;SDS011;58855;44.984;20.158;2022-08-19T12:04:20;12.02;;;4.03;;
55340;SDS011;58855;44.984;20.158;2022-08-19T12:06:47;9.30;;;4.05;;
55340;SDS011;58855;44.984;20.158;2022-08-19T12:09:15;11.93;;;3.60;;
55340;SDS011;58855;44.984;20.158;2022-08-19T12:11:42;15.07;;;4.78;;
55340;SDS011;58855;44.984;20.158;2022-08-19T12:14:09;8.30;;;3.33;;
55340;SDS011;58855;44.984;20.158;2022-08-19T12:16:36;11.55;;;3.85;;
55340;SDS011;58855;44.984;20.158;2022-08-19T12:19:03;12.32;;;3.90;;
55340;SDS011;58855;44.984;20.158;2022-08-19T12:21:31;12.82;;;3.80;;
55340;SDS011;58855;44.984;20.158;2022-08-19T12:23:57;8.18;;;3.78;;
55340;SDS011;58855;44.984;20.158;2022-08-19T12:26:24;12.50;;;3.92;;
55340;SDS011;58855;44.984;20.158;2022-08-19T12:28:51;12.18;;;3.38;;
55340;SDS011;58855;44.984;20.158;2022-08-19T12:31:17;13.50;;;3.83;;
55340;SDS011;58855;44.984;20.158;2022-08-19T12:33:44;11.50;;;4.05;;
55340;SDS011;58855;44.984;20.158;2022-08-19T12:36:12;16.50;;;4.05;;
55340;SDS011;58855;44.984;20.158;2022-08-19T12:38:39;10.10;;;4.07;;
55340;SDS011;58855;44.984;20.158;2022-08-19T12:41:06;19.35;;;4.80;;
55340;SDS011;58855;44.984;20.158;2022-08-19T12:43:33;7.65;;;3.53;;
55340;SDS011;58855;44.984;20.158;2022-08-19T12:46:00;9.23;;;3.85;;
55340;SDS011;58855;44.984;20.158;2022-08-19T12:48:26;15.05;;;4.10;;
55340;SDS011;58855;44.984;20.158;2022-08-19T12:50:54;16.05;;;3.67;;
55340;SDS011;58855;44.984;20.158;2022-08-19T12:53:20;17.08;;;3.92;;
55340;SDS011;58855;44.984;20.158;2022-08-19T12:55:46;15.52;;;3.63;;
55340;SDS011;58855;44.984;20.158;2022-08-19T12:58:12;8.38;;;3.72;;
55340;SDS011;58855;44.984;20.158;2022-08-19T13:00:38;15.27;;;4.28;;
55340;SDS011;58855;44.984;20.158;2022-08-19T13:03:05;14.10;;;4.20;;
55340;SDS011;58855;44.984;20.158;2022-08-19T13:05:31;14.10;;;3.95;;
55340;SDS011;58855;44.984;20.158;2022-08-19T13:08:01;9.68;;;4.10;;
55340;SDS011;58855;44.984;20.158;2022-08-19T13:10:29;10.93;;;3.55;;
55340;SDS011;58855;44.984;20.158;2022-08-19T13:12:56;9.30;;;3.85;;
55340;SDS011;58855;44.984;20.158;2022-08-19T13:15:24;12.45;;;4.93;;
55340;SDS011;58855;44.984;20.158;2022-08-19T13:17:53;10.43;;;4.32;;
55340;SDS011;58855;44.984;20.158;2022-08-19T13:20:21;11.77;;;3.55;;
55340;SDS011;58855;44.984;20.158;2022-08-19T13:22:47;12.70;;;5.95;;
55340;SDS011;58855;44.984;20.158;2022-08-19T13:25:14;12.98;;;4.20;;
55340;SDS011;58855;44.984;20.158;2022-08-19T13:27:42;10.68;;;3.42;;
55340;SDS011;58855;44.984;20.158;2022-08-19T13:30:09;9.95;;;3.83;;
55340;SDS011;58855;44.984;20.158;2022-08-19T13:32:54;13.10;;;4.95;;
55340;SDS011;58855;44.984;20.158;2022-08-19T13:35:36;10.55;;;3.80;;
55340;SDS011;58855;44.984;20.158;2022-08-19T13:38:02;11.88;;;4.40;;
55340;SDS011;58855;44.984;20.158;2022-08-19T13:40:30;15.20;;;4.68;;
55340;SDS011;58855;44.984;20.158;2022-08-19T13:42:56;10.55;;;3.85;;
55340;SDS011;58855;44.984;20.158;2022-08-19T13:45:24;12.88;;;3.42;;
55340;SDS011;58855;44.984;20.158;2022-08-19T13:47:52;12.73;;;3.88;;
55340;SDS011;58855;44.984;20.158;2022-08-19T13:50:20;15.00;;;4.20;;
55340;SDS011;58855;44.984;20.158;2022-08-19T13:52:47;9.95;;;3.58;;
55340;SDS011;58855;44.984;20.158;2022-08-19T13:55:14;16.77;;;5.13;;
55340;SDS011;58855;44.984;20.158;2022-08-19T13:57:40;11.82;;;3.63;;
55340;SDS011;58855;44.984;20.158;2022-08-19T14:00:10;10.93;;;3.83;;
55340;SDS011;58855;44.984;20.158;2022-08-19T14:02:38;12.90;;;3.70;;
55340;SDS011;58855;44.984;20.158;2022-08-19T14:05:05;10.88;;;3.53;;
55340;SDS011;58855;44.984;20.158;2022-08-19T14:07:32;13.30;;;3.90;;
55340;SDS011;58855;44.984;20.158;2022-08-19T14:09:58;9.55;;;4.05;;
55340;SDS011;58855;44.984;20.158;2022-08-19T14:12:24;14.88;;;4.30;;
55340;SDS011;58855;44.984;20.158;2022-08-19T14:14:51;22.38;;;4.45;;
55340;SDS011;58855;44.984;20.158;2022-08-19T14:17:17;13.85;;;3.90;;
55340;SDS011;58855;44.984;20.158;2022-08-19T14:19:43;19.17;;;4.05;;
55340;SDS011;58855;44.984;20.158;2022-08-19T14:22:09;9.00;;;3.85;;
55340;SDS011;58855;44.984;20.158;2022-08-19T14:24:38;9.80;;;3.60;;
55340;SDS011;58855;44.984;20.158;2022-08-19T14:27:05;20.50;;;4.75;;
55340;SDS011;58855;44.984;20.158;2022-08-19T14:29:31;13.25;;;3.60;;
55340;SDS011;58855;44.984;20.158;2022-08-19T14:31:58;20.60;;;4.57;;
55340;SDS011;58855;44.984;20.158;2022-08-19T14:34:24;10.05;;;3.65;;
55340;SDS011;58855;44.984;20.158;2022-08-19T14:36:51;9.68;;;3.47;;
55340;SDS011;58855;44.984;20.158;2022-08-19T14:39:18;10.90;;;3.90;;
55340;SDS011;58855;44.984;20.158;2022-08-19T14:41:44;17.63;;;4.55;;